Station History

Weather Underground - logo

Station Historical Data
Daily Summary for February 10, 2018 Units:  English    Metric   Both
« Previous Day
Next Day »
Daily Weekly Monthly Yearly Custom
  High: Low: Average:
Temperature: 72.4 °F 45.0 °F 57.9 °F
Dew Point: 52.4 °F 41.0 °F 46.4 °F
Humidity: 93 % 45 % 68 %
Wind Speed: 5.8 mph 0.0 mph 0.7 mph
Wind Gust: 5.8 mph - -
Wind:- - West
Pressure: 29.96 in 29.80 in -
Precipitation: 0.00 in    
Historical Graphs
 
 
Tabular Data for February 10, 2018
Time Temperature Dew Point Pressure Wind Wind Speed Wind Gust Humidity Rainfall Rate (Hourly)
00:00 51.5 °F 47.1 °F 29.96 in Calm     85 % 0.00 in
00:05 51.9 °F 47.2 °F 29.96 in Calm     84 % 0.00 in
00:10 52.1 °F 47.1 °F 29.96 in Calm     83 % 0.00 in
00:15 52.0 °F 47.0 °F 29.96 in Calm     83 % 0.00 in
00:20 51.9 °F 46.9 °F 29.95 in Calm     83 % 0.00 in
00:25 51.6 °F 46.3 °F 29.95 in Calm     82 % 0.00 in
00:30 50.9 °F 45.9 °F 29.95 in Calm     83 % 0.00 in
00:35 50.4 °F 45.7 °F 29.95 in Calm     84 % 0.00 in
00:40 49.8 °F 45.5 °F 29.95 in Calm     85 % 0.00 in
00:45 49.4 °F 45.4 °F 29.95 in Calm     86 % 0.00 in
00:50 48.9 °F 44.9 °F 29.96 in Calm     86 % 0.00 in
00:55 48.7 °F 45.0 °F 29.95 in Calm     87 % 0.00 in
01:00 48.8 °F 45.1 °F 29.96 in Calm     87 % 0.00 in
01:05 48.8 °F 45.4 °F 29.95 in Calm     88 % 0.00 in
01:10 48.8 °F 45.4 °F 29.96 in Calm     88 % 0.00 in
01:15 48.9 °F 45.5 °F 29.96 in Calm     88 % 0.00 in
01:20 49.4 °F 46.3 °F 29.96 in Calm     89 % 0.00 in
01:25 49.8 °F 46.1 °F 29.95 in Calm     87 % 0.00 in
01:30 49.6 °F 45.3 °F 29.95 in East 3.5 mph 3.5 mph 85 % 0.00 in
01:36 48.6 °F 44.3 °F 29.95 in East 1.0 mph 1.0 mph 85 % 0.00 in
01:41 48.1 °F 44.4 °F 29.95 in Calm     87 % 0.00 in
01:46 47.8 °F 44.4 °F 29.94 in Calm     88 % 0.00 in
01:51 47.6 °F 44.5 °F 29.94 in Calm     89 % 0.00 in
01:56 47.5 °F 44.4 °F 29.94 in Calm     89 % 0.00 in
02:01 47.4 °F 44.3 °F 29.94 in Calm     89 % 0.00 in
02:06 47.3 °F 44.2 °F 29.94 in Calm     89 % 0.00 in
02:11 47.2 °F 44.4 °F 29.94 in Calm     90 % 0.00 in
02:16 47.3 °F 44.5 °F 29.94 in Calm     90 % 0.00 in
02:21 47.3 °F 44.2 °F 29.94 in Calm     89 % 0.00 in
02:26 47.2 °F 44.4 °F 29.94 in Calm     90 % 0.00 in
02:31 47.3 °F 44.8 °F 29.94 in Calm     91 % 0.00 in
02:36 47.4 °F 44.6 °F 29.94 in Calm     90 % 0.00 in
02:41 47.3 °F 44.5 °F 29.94 in Calm     90 % 0.00 in
02:46 47.3 °F 44.5 °F 29.94 in Calm     90 % 0.00 in
02:51 47.3 °F 44.5 °F 29.94 in Calm     90 % 0.00 in
02:56 47.4 °F 44.9 °F 29.94 in Calm     91 % 0.00 in
03:01 47.4 °F 44.9 °F 29.93 in Calm     91 % 0.00 in
03:06 47.3 °F 44.2 °F 29.93 in Calm     89 % 0.00 in
03:11 46.9 °F 43.8 °F 29.93 in Calm     89 % 0.00 in
03:16 46.5 °F 43.4 °F 29.93 in Calm     89 % 0.00 in
03:21 46.3 °F 43.5 °F 29.93 in Calm     90 % 0.00 in
03:26 46.2 °F 43.4 °F 29.93 in Calm     90 % 0.00 in
03:31 46.3 °F 43.8 °F 29.92 in Calm     91 % 0.00 in
03:36 46.2 °F 43.4 °F 29.92 in Calm     90 % 0.00 in
03:41 46.1 °F 43.3 °F 29.92 in Calm     90 % 0.00 in
03:46 45.9 °F 43.1 °F 29.92 in Calm     90 % 0.00 in
03:51 45.9 °F 43.4 °F 29.92 in Calm     91 % 0.00 in
03:56 46.1 °F 43.6 °F 29.92 in Calm     91 % 0.00 in
04:01 46.5 °F 44.0 °F 29.92 in Calm     91 % 0.00 in
04:06 46.6 °F 43.8 °F 29.92 in Calm     90 % 0.00 in
04:11 46.4 °F 43.6 °F 29.92 in Calm     90 % 0.00 in
04:16 46.3 °F 43.5 °F 29.92 in Calm     90 % 0.00 in
04:21 45.9 °F 42.8 °F 29.92 in Calm     89 % 0.00 in
04:26 45.4 °F 42.3 °F 29.93 in Calm     89 % 0.00 in
04:31 45.2 °F 42.4 °F 29.93 in Calm     90 % 0.00 in
04:36 45.2 °F 42.7 °F 29.93 in Calm     91 % 0.00 in
04:41 45.4 °F 42.9 °F 29.93 in Calm     91 % 0.00 in
04:46 45.4 °F 42.9 °F 29.93 in Calm     91 % 0.00 in
04:51 45.4 °F 42.9 °F 29.93 in Calm     91 % 0.00 in
04:53 45.4 °F 42.9 °F 29.93 in Calm     91 % 0.00 in
04:58 45.4 °F 42.9 °F 29.93 in Calm     91 % 0.00 in
05:03 45.4 °F 42.9 °F 29.93 in Calm     91 % 0.00 in
05:08 45.4 °F 43.2 °F 29.93 in Calm     92 % 0.00 in
05:13 45.4 °F 43.2 °F 29.92 in Calm     92 % 0.00 in
05:18 45.5 °F 43.3 °F 29.92 in Calm     92 % 0.00 in
05:23 45.6 °F 43.4 °F 29.93 in Calm     92 % 0.00 in
05:28 45.9 °F 44.0 °F 29.92 in Calm     93 % 0.00 in
05:33 46.3 °F 44.4 °F 29.93 in Calm     93 % 0.00 in
05:38 46.5 °F 44.0 °F 29.92 in Calm     91 % 0.00 in
05:43 46.5 °F 44.0 °F 29.92 in Calm     91 % 0.00 in
05:48 46.5 °F 44.0 °F 29.93 in Calm     91 % 0.00 in
05:53 46.1 °F 43.0 °F 29.93 in Calm     89 % 0.00 in
05:58 45.4 °F 42.3 °F 29.93 in Calm     89 % 0.00 in
06:03 45.0 °F 42.2 °F 29.93 in Calm     90 % 0.00 in
06:08 45.1 °F 42.9 °F 29.93 in Calm     92 % 0.00 in
06:13 45.5 °F 43.3 °F 29.93 in Calm     92 % 0.00 in
06:18 46.0 °F 43.8 °F 29.93 in Calm     92 % 0.00 in
06:23 46.0 °F 43.5 °F 29.93 in Calm     91 % 0.00 in
06:28 45.7 °F 42.9 °F 29.94 in Calm     90 % 0.00 in
06:33 45.2 °F 42.4 °F 29.94 in Calm     90 % 0.00 in
06:38 45.0 °F 42.5 °F 29.93 in Calm     91 % 0.00 in
06:43 45.1 °F 42.9 °F 29.94 in Calm     92 % 0.00 in
06:48 45.6 °F 43.4 °F 29.94 in Calm     92 % 0.00 in
06:53 45.7 °F 43.5 °F 29.94 in Calm     92 % 0.00 in
06:58 45.4 °F 42.9 °F 29.94 in Calm     91 % 0.00 in
07:03 45.2 °F 42.7 °F 29.94 in Calm     91 % 0.00 in
07:08 45.1 °F 42.6 °F 29.94 in Calm     91 % 0.00 in
07:13 45.1 °F 42.6 °F 29.94 in Calm     91 % 0.00 in
07:18 45.2 °F 43.0 °F 29.94 in Calm     92 % 0.00 in
07:23 45.6 °F 43.4 °F 29.94 in East 1.2 mph   92 % 0.00 in
07:28 46.0 °F 43.8 °F 29.94 in Calm     92 % 0.00 in
07:33 46.6 °F 44.4 °F 29.94 in East 1.2 mph   92 % 0.00 in
07:38 47.2 °F 44.7 °F 29.94 in Calm     91 % 0.00 in
07:44 47.8 °F 45.0 °F 29.94 in Calm     90 % 0.00 in
07:49 48.2 °F 45.1 °F 29.95 in Calm     89 % 0.00 in
07:54 48.8 °F 45.7 °F 29.95 in Calm     89 % 0.00 in
07:59 49.3 °F 45.9 °F 29.94 in Calm     88 % 0.00 in
08:04 50.0 °F 46.6 °F 29.95 in Calm     88 % 0.00 in
08:09 50.5 °F 46.8 °F 29.94 in Calm     87 % 0.00 in
08:14 51.0 °F 47.3 °F 29.94 in Calm     87 % 0.00 in
08:19 51.7 °F 47.6 °F 29.94 in Calm     86 % 0.00 in
08:24 52.5 °F 47.8 °F 29.94 in Calm     84 % 0.00 in
08:29 53.3 °F 48.3 °F 29.94 in Calm     83 % 0.00 in
08:34 53.9 °F 48.2 °F 29.94 in Calm     81 % 0.00 in
08:39 54.7 °F 49.0 °F 29.94 in Calm     81 % 0.00 in
08:44 55.4 °F 49.3 °F 29.94 in Calm     80 % 0.00 in
08:49 56.1 °F 49.7 °F 29.94 in Calm     79 % 0.00 in
08:54 56.7 °F 49.9 °F 29.94 in Calm     78 % 0.00 in
08:59 57.5 °F 50.0 °F 29.94 in NNE 1.0 mph 1.0 mph 76 % 0.00 in
09:04 58.3 °F 50.0 °F 29.94 in Calm     74 % 0.00 in
09:09 59.0 °F 50.0 °F 29.94 in Calm     72 % 0.00 in
09:14 59.8 °F 50.4 °F 29.94 in Calm     71 % 0.00 in
09:19 60.8 °F 50.2 °F 29.93 in Calm     68 % 0.00 in
09:24 61.4 °F 49.9 °F 29.93 in Calm     66 % 0.00 in
09:29 62.0 °F 49.7 °F 29.93 in Calm     64 % 0.00 in
09:34 62.4 °F 50.1 °F 29.93 in Calm     64 % 0.00 in
09:39 62.8 °F 48.7 °F 29.93 in Calm     60 % 0.00 in
09:44 63.4 °F 49.3 °F 29.93 in Calm     60 % 0.00 in
09:49 63.7 °F 48.6 °F 29.93 in Calm     58 % 0.00 in
09:54 64.2 °F 48.2 °F 29.93 in Calm     56 % 0.00 in
09:59 64.5 °F 48.9 °F 29.92 in Calm     57 % 0.00 in
10:04 65.1 °F 49.5 °F 29.93 in Calm     57 % 0.00 in
10:09 65.4 °F 49.3 °F 29.93 in Calm     56 % 0.00 in
10:14 65.7 °F 50.0 °F 29.92 in Calm     57 % 0.00 in
10:19 65.9 °F 49.3 °F 29.92 in Calm     55 % 0.00 in
10:24 66.7 °F 49.5 °F 29.92 in Calm     54 % 0.00 in
10:29 66.8 °F 49.6 °F 29.92 in Calm     54 % 0.00 in
10:34 67.1 °F 49.9 °F 29.92 in West 1.2 mph 1.2 mph 54 % 0.00 in
10:39 67.7 °F 49.9 °F 29.91 in Calm     53 % 0.00 in
10:44 68.2 °F 48.8 °F 29.91 in NNW 1.2 mph 1.2 mph 50 % 0.00 in
10:49 68.7 °F 49.3 °F 29.91 in SSE 2.3 mph 2.3 mph 50 % 0.00 in
10:54 69.2 °F 49.2 °F 29.91 in Calm     49 % 0.00 in
10:59 69.0 °F 49.0 °F 29.91 in West 1.2 mph 1.2 mph 49 % 0.00 in
11:04 68.7 °F 48.8 °F 29.91 in NW 2.3 mph   49 % 0.00 in
11:09 68.9 °F 48.9 °F 29.90 in Calm     49 % 0.00 in
11:14 69.1 °F 49.1 °F 29.90 in North 1.2 mph 1.2 mph 49 % 0.00 in
11:22 69.4 °F 49.4 °F 29.90 in NW 2.3 mph 2.3 mph 49 % 0.00 in
11:27 69.6 °F 50.7 °F 29.90 in SSW 1.2 mph 1.2 mph 51 % 0.00 in
11:32 70.4 °F 50.3 °F 29.89 in Calm     49 % 0.00 in
11:37 70.7 °F 51.1 °F 29.89 in Calm     50 % 0.00 in
11:42 70.9 °F 50.2 °F 29.88 in NW 1.2 mph   48 % 0.00 in
11:47 71.0 °F 50.3 °F 29.88 in NW 1.2 mph 1.2 mph 48 % 0.00 in
11:52 71.2 °F 49.9 °F 29.88 in WNW 1.2 mph   47 % 0.00 in
11:57 71.3 °F 50.0 °F 29.87 in NW 2.3 mph 2.3 mph 47 % 0.00 in
12:02 71.1 °F 49.8 °F 29.87 in North 1.2 mph 1.2 mph 47 % 0.00 in
12:07 71.4 °F 51.2 °F 29.87 in NW 2.3 mph 2.3 mph 49 % 0.00 in
12:12 71.3 °F 50.0 °F 29.87 in NW 2.3 mph 2.3 mph 47 % 0.00 in
12:17 71.1 °F 50.4 °F 29.87 in NW 2.3 mph 2.3 mph 48 % 0.00 in
12:22 70.7 °F 50.0 °F 29.86 in NNW 1.2 mph 1.2 mph 48 % 0.00 in
12:27 70.6 °F 50.5 °F 29.87 in NW 3.5 mph 3.5 mph 49 % 0.00 in
12:32 70.9 °F 50.8 °F 29.86 in NW 3.5 mph 3.5 mph 49 % 0.00 in
12:37 70.8 °F 50.1 °F 29.86 in NW 4.6 mph 4.6 mph 48 % 0.00 in
12:43 70.8 °F 50.7 °F 29.86 in WNW 3.5 mph 3.5 mph 49 % 0.00 in
12:48 71.1 °F 52.0 °F 29.85 in NNW 2.3 mph   51 % 0.00 in
12:53 71.4 °F 51.2 °F 29.85 in NW 2.3 mph 2.3 mph 49 % 0.00 in
12:58 71.2 °F 51.6 °F 29.85 in NW 3.5 mph 3.5 mph 50 % 0.00 in
13:03 71.2 °F 51.6 °F 29.84 in West 2.3 mph 2.3 mph 50 % 0.00 in
13:08 71.5 °F 52.4 °F 29.84 in West 4.6 mph 4.6 mph 51 % 0.00 in
13:13 71.4 °F 51.2 °F 29.84 in NNW 3.5 mph 3.5 mph 49 % 0.00 in
13:18 71.4 °F 51.2 °F 29.84 in WNW 3.5 mph 3.5 mph 49 % 0.00 in
13:23 71.5 °F 51.9 °F 29.84 in NNE 1.2 mph 1.2 mph 50 % 0.00 in
13:28 71.8 °F 51.0 °F 29.83 in NNE 4.6 mph 4.6 mph 48 % 0.00 in
13:33 71.7 °F 51.5 °F 29.83 in NW 4.0 mph 4.0 mph 49 % 0.00 in
13:38 71.9 °F 51.7 °F 29.83 in West 3.0 mph 3.0 mph 49 % 0.00 in
13:43 71.8 °F 51.6 °F 29.83 in WNW 1.2 mph   49 % 0.00 in
13:48 72.2 °F 52.0 °F 29.82 in NW 5.8 mph 5.8 mph 49 % 0.00 in
13:53 72.2 °F 51.4 °F 29.82 in Calm   0.1 mph 48 % 0.00 in
13:58 72.3 °F 51.5 °F 29.82 in NW 3.5 mph 3.5 mph 48 % 0.00 in
14:03 72.3 °F 51.5 °F 29.82 in NW 2.3 mph 2.3 mph 48 % 0.00 in
14:08 72.3 °F 51.5 °F 29.82 in West 3.5 mph 3.5 mph 48 % 0.00 in
14:13 72.3 °F 51.5 °F 29.82 in WNW 2.3 mph 2.3 mph 48 % 0.00 in
14:18 72.4 °F 51.6 °F 29.81 in NNW 2.3 mph 2.3 mph 48 % 0.00 in
14:23 72.4 °F 51.0 °F 29.81 in NW 2.3 mph 2.3 mph 47 % 0.00 in
14:28 72.4 °F 51.0 °F 29.81 in West 2.3 mph 2.3 mph 47 % 0.00 in
14:33 72.2 °F 50.8 °F 29.81 in NW 3.5 mph 3.5 mph 47 % 0.00 in
14:38 72.3 °F 51.5 °F 29.81 in NW 2.3 mph 2.3 mph 48 % 0.00 in
14:43 72.2 °F 50.3 °F 29.81 in NNW 1.2 mph   46 % 0.00 in
14:48 72.2 °F 50.8 °F 29.81 in NW 3.5 mph 3.5 mph 47 % 0.00 in
14:53 72.1 °F 50.8 °F 29.81 in North 3.5 mph 3.5 mph 47 % 0.00 in
14:58 72.0 °F 50.7 °F 29.81 in WNW 3.5 mph 3.5 mph 47 % 0.00 in
15:03 72.1 °F 50.2 °F 29.81 in North 1.2 mph 1.4 mph 46 % 0.00 in
15:08 72.2 °F 50.8 °F 29.80 in NW 3.5 mph 3.5 mph 47 % 0.00 in
15:13 72.2 °F 50.8 °F 29.81 in NNE 3.5 mph 3.5 mph 47 % 0.00 in
15:18 71.9 °F 50.0 °F 29.80 in NW 2.3 mph 2.3 mph 46 % 0.00 in
15:23 71.7 °F 49.8 °F 29.81 in WNW 2.0 mph 2.0 mph 46 % 0.00 in
15:28 71.8 °F 49.9 °F 29.81 in NW 3.5 mph 3.5 mph 46 % 0.00 in
15:33 71.6 °F 49.7 °F 29.81 in West 1.2 mph 1.2 mph 46 % 0.00 in
15:38 71.3 °F 49.4 °F 29.81 in NW 3.5 mph 3.5 mph 46 % 0.00 in
15:43 71.0 °F 49.7 °F 29.81 in West 3.5 mph 3.5 mph 47 % 0.00 in
15:48 70.9 °F 49.1 °F 29.81 in NW 3.5 mph 3.5 mph 46 % 0.00 in
15:53 71.0 °F 50.3 °F 29.81 in NW 2.3 mph 2.3 mph 48 % 0.00 in
15:58 71.1 °F 48.7 °F 29.81 in West 4.6 mph 4.6 mph 45 % 0.00 in
16:03 70.7 °F 48.9 °F 29.81 in NW 2.3 mph 2.3 mph 46 % 0.00 in
16:08 70.5 °F 49.3 °F 29.81 in WNW 3.5 mph 3.5 mph 47 % 0.00 in
16:13 70.3 °F 49.1 °F 29.81 in WNW 3.0 mph 3.0 mph 47 % 0.00 in
16:18 70.2 °F 49.0 °F 29.81 in North 3.5 mph 3.5 mph 47 % 0.00 in
16:23 70.1 °F 49.5 °F 29.81 in WNW 2.3 mph 2.3 mph 48 % 0.00 in
16:29 70.1 °F 49.5 °F 29.81 in WNW 1.2 mph   48 % 0.00 in
16:34 69.8 °F 49.2 °F 29.81 in WNW 1.2 mph 1.2 mph 48 % 0.00 in
16:39 69.7 °F 49.1 °F 29.81 in WNW 3.5 mph 3.5 mph 48 % 0.00 in
16:44 69.6 °F 49.0 °F 29.81 in NW 4.0 mph 4.0 mph 48 % 0.00 in
16:49 69.4 °F 49.4 °F 29.82 in NW 2.3 mph 2.3 mph 49 % 0.00 in
16:54 69.1 °F 49.1 °F 29.82 in NW 1.2 mph 1.2 mph 49 % 0.00 in
16:59 68.9 °F 49.5 °F 29.82 in Calm     50 % 0.00 in
17:04 68.6 °F 49.7 °F 29.82 in Calm     51 % 0.00 in
17:09 68.6 °F 49.7 °F 29.83 in Calm     51 % 0.00 in
17:14 68.5 °F 49.7 °F 29.83 in Calm     51 % 0.00 in
17:19 68.2 °F 49.4 °F 29.83 in Calm     51 % 0.00 in
17:24 67.9 °F 49.1 °F 29.83 in NW 2.3 mph 2.3 mph 51 % 0.00 in
17:29 67.5 °F 48.7 °F 29.83 in NW 2.3 mph 2.3 mph 51 % 0.00 in
17:34 66.9 °F 48.7 °F 29.83 in WNW 2.3 mph 2.3 mph 52 % 0.00 in
17:39 66.5 °F 48.8 °F 29.83 in WNW 1.2 mph 1.2 mph 53 % 0.00 in
17:44 66.0 °F 48.4 °F 29.83 in Calm     53 % 0.00 in
17:49 65.7 °F 48.6 °F 29.84 in NW 1.2 mph 1.2 mph 54 % 0.00 in
17:54 65.3 °F 48.2 °F 29.84 in NW 1.2 mph 1.2 mph 54 % 0.00 in
17:59 65.0 °F 47.9 °F 29.84 in NW 1.2 mph 1.2 mph 54 % 0.00 in
18:04 64.6 °F 47.6 °F 29.84 in NW 1.2 mph 1.2 mph 54 % 0.00 in
18:09 64.2 °F 47.7 °F 29.84 in NW 1.2 mph 1.2 mph 55 % 0.00 in
18:14 64.1 °F 47.6 °F 29.84 in West 1.2 mph 1.2 mph 55 % 0.00 in
18:19 63.9 °F 47.9 °F 29.85 in Calm     56 % 0.00 in
18:24 63.7 °F 47.7 °F 29.84 in West 1.2 mph   56 % 0.00 in
18:29 63.3 °F 47.8 °F 29.85 in West 1.2 mph 1.2 mph 57 % 0.00 in
18:34 62.8 °F 47.8 °F 29.85 in Calm     58 % 0.00 in
18:39 62.5 °F 47.5 °F 29.85 in Calm     58 % 0.00 in
18:44 62.2 °F 47.7 °F 29.85 in Calm     59 % 0.00 in
18:49 61.8 °F 47.3 °F 29.85 in Calm     59 % 0.00 in
18:54 61.7 °F 47.2 °F 29.85 in Calm     59 % 0.00 in
18:59 61.8 °F 47.3 °F 29.86 in Calm     59 % 0.00 in
19:04 61.6 °F 47.1 °F 29.86 in Calm     59 % 0.00 in
19:09 61.2 °F 46.8 °F 29.86 in Calm     59 % 0.00 in
19:14 60.7 °F 47.2 °F 29.86 in Calm     61 % 0.00 in
19:19 60.2 °F 47.6 °F 29.86 in Calm     63 % 0.00 in
19:24 59.8 °F 46.7 °F 29.86 in Calm     62 % 0.00 in
19:29 60.5 °F 46.5 °F 29.86 in Calm     60 % 0.00 in
19:34 60.7 °F 45.8 °F 29.86 in Calm     58 % 0.00 in
19:39 60.9 °F 45.1 °F 29.87 in Calm     56 % 0.00 in
19:44 61.0 °F 44.7 °F 29.87 in Calm     55 % 0.00 in
19:49 61.0 °F 43.7 °F 29.87 in NW 1.2 mph 1.2 mph 53 % 0.00 in
19:54 60.9 °F 43.6 °F 29.87 in Calm     53 % 0.00 in
19:59 60.7 °F 43.5 °F 29.87 in Calm     53 % 0.00 in
20:04 60.3 °F 43.1 °F 29.87 in NW 1.2 mph 1.2 mph 53 % 0.00 in
20:09 59.9 °F 42.7 °F 29.87 in NNW 1.2 mph 1.2 mph 53 % 0.00 in
20:14 59.7 °F 42.5 °F 29.87 in Calm     53 % 0.00 in
20:19 59.6 °F 41.9 °F 29.88 in Calm     52 % 0.00 in
20:24 59.5 °F 41.9 °F 29.88 in Calm     52 % 0.00 in
20:29 59.1 °F 42.0 °F 29.88 in Calm     53 % 0.00 in
20:34 58.6 °F 42.5 °F 29.89 in Calm     55 % 0.00 in
20:39 58.0 °F 42.4 °F 29.89 in Calm     56 % 0.00 in
20:44 57.3 °F 42.6 °F 29.88 in Calm     58 % 0.00 in
20:49 56.8 °F 42.2 °F 29.89 in Calm     58 % 0.00 in
20:54 56.5 °F 42.8 °F 29.89 in Calm     60 % 0.00 in
20:59 56.2 °F 42.5 °F 29.89 in Calm     60 % 0.00 in
21:04 56.1 °F 42.0 °F 29.89 in Calm     59 % 0.00 in
21:09 56.6 °F 42.4 °F 29.90 in Calm     59 % 0.00 in
21:14 56.9 °F 41.8 °F 29.90 in Calm     57 % 0.00 in
21:19 56.8 °F 42.2 °F 29.90 in Calm     58 % 0.00 in
21:24 56.5 °F 41.4 °F 29.91 in Calm     57 % 0.00 in
21:29 55.9 °F 41.8 °F 29.91 in Calm     59 % 0.00 in
21:34 55.4 °F 43.4 °F 29.91 in Calm     64 % 0.00 in
21:39 54.7 °F 42.8 °F 29.91 in Calm     64 % 0.00 in
21:44 54.1 °F 42.6 °F 29.91 in Calm     65 % 0.00 in
21:49 53.7 °F 42.6 °F 29.91 in Calm     66 % 0.00 in
21:54 53.1 °F 43.2 °F 29.91 in Calm     69 % 0.00 in
21:59 52.5 °F 43.0 °F 29.92 in Calm     70 % 0.00 in
22:04 52.1 °F 43.0 °F 29.92 in Calm     71 % 0.00 in
22:09 51.7 °F 43.0 °F 29.92 in Calm     72 % 0.00 in
22:14 51.4 °F 42.7 °F 29.92 in Calm     72 % 0.00 in
22:19 51.2 °F 43.2 °F 29.92 in Calm     74 % 0.00 in
22:24 51.0 °F 43.0 °F 29.92 in Calm     74 % 0.00 in
22:30 50.7 °F 42.7 °F 29.92 in Calm     74 % 0.00 in
22:35 50.5 °F 42.2 °F 29.92 in Calm     73 % 0.00 in
22:40 50.6 °F 41.5 °F 29.92 in Calm     71 % 0.00 in
22:45 50.5 °F 41.4 °F 29.92 in Calm     71 % 0.00 in
22:50 50.5 °F 41.1 °F 29.93 in Calm     70 % 0.00 in
22:55 50.5 °F 41.1 °F 29.93 in Calm     70 % 0.00 in
23:00 50.5 °F 41.4 °F 29.94 in Calm     71 % 0.00 in
23:05 50.2 °F 41.5 °F 29.94 in Calm     72 % 0.00 in
23:10 49.9 °F 41.6 °F 29.94 in Calm     73 % 0.00 in
23:15 49.7 °F 41.4 °F 29.94 in Calm     73 % 0.00 in
23:20 49.3 °F 41.0 °F 29.94 in Calm     73 % 0.00 in
23:25 49.0 °F 41.4 °F 29.94 in Calm     75 % 0.00 in
23:30 48.8 °F 41.2 °F 29.94 in Calm     75 % 0.00 in
23:35 48.9 °F 41.7 °F 29.94 in Calm     76 % 0.00 in
23:40 49.1 °F 41.9 °F 29.94 in Calm     76 % 0.00 in
23:45 49.3 °F 41.7 °F 29.94 in Calm     75 % 0.00 in
23:50 49.3 °F 41.7 °F 29.94 in Calm     75 % 0.00 in
23:55 49.0 °F 41.4 °F 29.94 in Calm     75 % 0.00 in
Park Place, Exeter, Tulare County, California, USA
Compliments of Weather Underground - 2.75 mb